Time;durP1;ratioP1;P1;durP2;ratioP2;P2;SDS_P1;SDS_P2;PMS_P1;PMS_P2;Temp;Humidity;BMP_temperature;BMP_pressure;BME280_temperature;BME280_humidity;BME280_pressure;Samples;Min_cycle;Max_cycle;Signal;HPM_P1;HPM_P2
2021/01/17 00:01:43;;;;;;;27.30;18.37;;;;;;;;;;5056016;28;20234;-80
2021/01/17 00:04:10;;;;;;;24.73;16.43;;;;;;;;;;5056303;28;20238;-81
2021/01/17 00:06:36;;;;;;;27.13;18.80;;;;;;;;;;5056364;28;20251;-84
2021/01/17 00:09:03;;;;;;;26.03;17.90;;;;;;;;;;5056320;28;20235;-85
2021/01/17 00:11:29;;;;;;;27.23;18.43;;;;;;;;;;5057249;28;20238;-83
2021/01/17 00:13:55;;;;;;;27.27;18.53;;;;;;;;;;5057591;28;20245;-86
2021/01/17 00:16:22;;;;;;;26.10;18.27;;;;;;;;;;5057700;28;20627;-85
2021/01/17 00:18:48;;;;;;;25.80;18.40;;;;;;;;;;5057242;28;20230;-88
2021/01/17 00:21:14;;;;;;;25.50;18.20;;;;;;;;;;5057670;28;20502;-88
2021/01/17 00:23:41;;;;;;;25.67;17.53;;;;;;;;;;5057812;28;20592;-88
2021/01/17 00:26:07;;;;;;;25.47;18.37;;;;;;;;;;5057246;28;20247;-86
2021/01/17 00:28:33;;;;;;;27.67;18.87;;;;;;;;;;5056948;28;20254;-87
2021/01/17 00:30:59;;;;;;;26.10;18.97;;;;;;;;;;5056319;28;20231;-87
2021/01/17 00:33:25;;;;;;;26.77;18.43;;;;;;;;;;5057114;28;20227;-87
2021/01/17 00:35:51;;;;;;;26.27;17.97;;;;;;;;;;5057037;28;20238;-87
2021/01/17 00:38:17;;;;;;;28.77;19.20;;;;;;;;;;5057285;28;20235;-87
2021/01/17 00:40:44;;;;;;;27.57;18.70;;;;;;;;;;5066653;28;20214;-86
2021/01/17 00:43:10;;;;;;;27.60;18.67;;;;;;;;;;5056785;28;20231;-86
2021/01/17 00:45:36;;;;;;;27.00;18.90;;;;;;;;;;5056675;28;20262;-85
2021/01/17 00:48:03;;;;;;;27.43;18.77;;;;;;;;;;5035330;28;20220;-85
2021/01/17 00:50:29;;;;;;;25.43;18.73;;;;;;;;;;5036257;28;20240;-84
2021/01/17 00:52:55;;;;;;;27.07;18.40;;;;;;;;;;5036852;28;20557;-87
2021/01/17 00:55:22;;;;;;;26.47;18.83;;;;;;;;;;5036466;28;20306;-86
2021/01/17 00:57:49;;;;;;;28.33;19.43;;;;;;;;;;5036567;28;20224;-83
2021/01/17 01:00:17;;;;;;;27.70;19.63;;;;;;;;;;5036009;28;20239;-86
2021/01/17 01:02:43;;;;;;;29.43;19.47;;;;;;;;;;5036784;28;20236;-86
2021/01/17 01:05:11;;;;;;;27.67;19.20;;;;;;;;;;5036442;28;20228;-85
2021/01/17 01:07:37;;;;;;;27.13;18.93;;;;;;;;;;5036812;28;20208;-86
2021/01/17 01:10:05;;;;;;;29.73;19.33;;;;;;;;;;5034725;28;20527;-86
2021/01/17 01:12:31;;;;;;;26.07;18.83;;;;;;;;;;5036425;28;20237;-86
2021/01/17 01:14:58;;;;;;;26.90;18.87;;;;;;;;;;5036302;28;20223;-86
2021/01/17 01:17:24;;;;;;;29.33;19.63;;;;;;;;;;5036543;28;20204;-85
2021/01/17 01:19:50;;;;;;;28.00;18.63;;;;;;;;;;5035699;28;20627;-85
2021/01/17 01:22:17;;;;;;;25.03;18.17;;;;;;;;;;5036004;28;20231;-86
2021/01/17 01:24:43;;;;;;;28.23;18.63;;;;;;;;;;5036091;28;20234;-86
2021/01/17 01:27:11;;;;;;;26.90;18.53;;;;;;;;;;5036188;28;20247;-85
2021/01/17 01:29:37;;;;;;;27.07;18.43;;;;;;;;;;5034481;28;20232;-84
2021/01/17 01:32:04;;;;;;;26.80;18.20;;;;;;;;;;5035929;28;20227;-82
2021/01/17 01:34:30;;;;;;;25.83;18.00;;;;;;;;;;5035447;28;20620;-80
2021/01/17 01:36:56;;;;;;;25.60;18.23;;;;;;;;;;5035549;28;20228;-80
2021/01/17 01:39:22;;;;;;;25.33;17.50;;;;;;;;;;5035611;28;20200;-84
2021/01/17 01:41:49;;;;;;;25.70;17.93;;;;;;;;;;5035622;28;20639;-80
2021/01/17 01:44:15;;;;;;;28.73;18.73;;;;;;;;;;5034969;28;20231;-82
2021/01/17 01:46:42;;;;;;;27.37;18.60;;;;;;;;;;5035000;28;20244;-80
2021/01/17 01:49:09;;;;;;;25.73;17.90;;;;;;;;;;5052832;28;20227;-84
2021/01/17 01:51:36;;;;;;;29.60;18.40;;;;;;;;;;5055351;28;20510;-82
2021/01/17 01:54:02;;;;;;;26.27;18.27;;;;;;;;;;5055208;28;20238;-81
2021/01/17 01:56:29;;;;;;;23.97;17.07;;;;;;;;;;5054707;28;20217;-80
2021/01/17 01:58:55;;;;;;;25.10;17.77;;;;;;;;;;5055128;28;20235;-80
2021/01/17 02:01:22;;;;;;;25.03;16.73;;;;;;;;;;5055079;28;20214;-81
2021/01/17 02:03:49;;;;;;;24.20;17.17;;;;;;;;;;5054910;28;20234;-81
2021/01/17 02:06:19;;;;;;;26.73;18.17;;;;;;;;;;5054772;28;20258;-81
2021/01/17 02:09:00;;;;;;;24.60;17.20;;;;;;;;;;5054942;28;20235;-80
2021/01/17 02:11:32;;;;;;;27.13;18.17;;;;;;;;;;5036453;28;20223;-81
2021/01/17 02:14:03;;;;;;;23.67;17.67;;;;;;;;;;5054709;28;20356;-83
2021/01/17 02:16:29;;;;;;;25.43;17.53;;;;;;;;;;5054860;28;20231;-86
2021/01/17 02:18:57;;;;;;;24.87;17.07;;;;;;;;;;5054607;28;20269;-81
2021/01/17 02:21:24;;;;;;;26.83;18.20;;;;;;;;;;5054245;28;20524;-81
2021/01/17 02:23:52;;;;;;;24.43;17.40;;;;;;;;;;5054476;28;20242;-80
2021/01/17 02:26:19;;;;;;;25.80;17.43;;;;;;;;;;5054553;28;20254;-80
2021/01/17 02:28:45;;;;;;;24.80;16.97;;;;;;;;;;5054616;28;20238;-82
2021/01/17 02:31:11;;;;;;;23.13;17.33;;;;;;;;;;5055441;28;20229;-86
2021/01/17 02:33:39;;;;;;;25.27;17.07;;;;;;;;;;5055875;28;20211;-85
2021/01/17 02:36:11;;;;;;;25.03;17.30;;;;;;;;;;5055144;28;20294;-85
2021/01/17 02:38:44;;;;;;;23.10;16.87;;;;;;;;;;5055782;28;20199;-85
2021/01/17 02:41:13;;;;;;;24.07;17.63;;;;;;;;;;5054464;28;20238;-85
2021/01/17 02:43:41;;;;;;;24.50;16.83;;;;;;;;;;5054880;28;20238;-86
2021/01/17 02:46:07;;;;;;;24.50;17.67;;;;;;;;;;5036460;28;20297;-85
2021/01/17 02:48:33;;;;;;;23.60;16.50;;;;;;;;;;5054277;28;20254;-86
2021/01/17 02:51:00;;;;;;;24.70;17.27;;;;;;;;;;5054328;28;20238;-86
2021/01/17 02:53:27;;;;;;;24.83;17.47;;;;;;;;;;5054664;28;20650;-86
2021/01/17 02:55:53;;;;;;;24.07;16.77;;;;;;;;;;5053489;28;20254;-86
2021/01/17 02:58:20;;;;;;;23.97;16.33;;;;;;;;;;5054159;28;20207;-85
2021/01/17 03:00:47;;;;;;;20.93;15.70;;;;;;;;;;5036372;28;20231;-86
2021/01/17 03:03:14;;;;;;;23.30;16.43;;;;;;;;;;5054478;28;20231;-85
2021/01/17 03:05:40;;;;;;;23.17;17.10;;;;;;;;;;5036790;28;20191;-85
2021/01/17 03:08:07;;;;;;;22.90;16.13;;;;;;;;;;5055683;28;20242;-83
2021/01/17 03:10:33;;;;;;;25.03;16.90;;;;;;;;;;5058056;28;20231;-85
2021/01/17 03:13:00;;;;;;;23.80;17.03;;;;;;;;;;5058321;28;20207;-84
2021/01/17 03:15:29;;;;;;;25.23;17.13;;;;;;;;;;5058276;28;20243;-85
2021/01/17 03:17:56;;;;;;;25.80;18.13;;;;;;;;;;5058696;28;20229;-82
2021/01/17 03:20:22;;;;;;;23.23;16.60;;;;;;;;;;5058141;28;20261;-85
2021/01/17 03:22:48;;;;;;;23.67;17.27;;;;;;;;;;5058303;28;20234;-84
2021/01/17 03:25:14;;;;;;;23.33;16.23;;;;;;;;;;5057792;28;20207;-85
2021/01/17 03:27:40;;;;;;;25.10;17.43;;;;;;;;;;5040477;28;20239;-85
2021/01/17 03:30:07;;;;;;;22.97;16.30;;;;;;;;;;5057850;28;20246;-86
2021/01/17 03:32:33;;;;;;;24.37;17.43;;;;;;;;;;5058007;28;20243;-83
2021/01/17 03:35:00;;;;;;;22.83;16.53;;;;;;;;;;5057418;28;20515;-85
2021/01/17 03:37:27;;;;;;;21.03;15.57;;;;;;;;;;5058066;28;20536;-86
2021/01/17 03:39:53;;;;;;;23.77;17.57;;;;;;;;;;5057319;28;20251;-83
2021/01/17 03:42:19;;;;;;;24.20;17.87;;;;;;;;;;5057936;28;20537;-81
2021/01/17 03:44:48;;;;;;;24.90;17.17;;;;;;;;;;5057314;28;20239;-81
2021/01/17 03:47:14;;;;;;;22.47;16.13;;;;;;;;;;5057435;28;20251;-82
2021/01/17 03:49:40;;;;;;;24.13;17.13;;;;;;;;;;5057637;28;20242;-85
2021/01/17 03:52:07;;;;;;;24.20;16.67;;;;;;;;;;5057609;28;20235;-83
2021/01/17 03:54:33;;;;;;;21.57;16.73;;;;;;;;;;5057639;28;20461;-81
2021/01/17 03:57:00;;;;;;;24.60;16.90;;;;;;;;;;5057981;28;20238;-82
2021/01/17 03:59:26;;;;;;;22.30;16.03;;;;;;;;;;5057469;28;20235;-81
2021/01/17 04:01:52;;;;;;;22.30;15.63;;;;;;;;;;5057520;28;20622;-82
2021/01/17 04:04:18;;;;;;;23.53;16.80;;;;;;;;;;5057069;28;20554;-81
2021/01/17 04:06:44;;;;;;;23.70;16.00;;;;;;;;;;5057066;28;20255;-80
2021/01/17 04:09:11;;;;;;;23.27;16.60;;;;;;;;;;5057050;28;20226;-81
2021/01/17 04:11:37;;;;;;;22.47;15.83;;;;;;;;;;5057224;28;20578;-85
2021/01/17 04:14:03;;;;;;;21.57;16.23;;;;;;;;;;5039498;28;20623;-85
2021/01/17 04:16:29;;;;;;;22.60;16.43;;;;;;;;;;5057097;28;20536;-84
2021/01/17 04:18:55;;;;;;;24.13;17.13;;;;;;;;;;5056208;28;20239;-84
2021/01/17 04:21:21;;;;;;;22.63;16.33;;;;;;;;;;5056871;28;20306;-84
2021/01/17 04:23:47;;;;;;;21.50;16.50;;;;;;;;;;5056915;28;20231;-84
2021/01/17 04:26:16;;;;;;;20.60;15.83;;;;;;;;;;5056915;28;20257;-83
2021/01/17 04:28:43;;;;;;;21.70;15.80;;;;;;;;;;5056820;28;20199;-81
2021/01/17 04:31:09;;;;;;;22.90;16.10;;;;;;;;;;5056694;28;20238;-85
2021/01/17 04:33:35;;;;;;;22.27;16.20;;;;;;;;;;5056964;28;20207;-85
2021/01/17 04:36:01;;;;;;;21.70;15.33;;;;;;;;;;5056967;28;20203;-86
2021/01/17 04:38:30;;;;;;;26.07;16.80;;;;;;;;;;5056497;28;20238;-81
2021/01/17 04:41:00;;;;;;;21.63;16.07;;;;;;;;;;5039130;28;20199;-83
2021/01/17 04:43:30;;;;;;;20.63;15.23;;;;;;;;;;5056431;28;20250;-82
2021/01/17 04:45:58;;;;;;;22.43;15.70;;;;;;;;;;5056505;28;20215;-85
2021/01/17 04:48:25;;;;;;;25.57;16.60;;;;;;;;;;5056197;28;20265;-85
2021/01/17 04:50:54;;;;;;;22.67;16.23;;;;;;;;;;5038682;28;20199;-85
2021/01/17 04:53:20;;;;;;;23.00;16.50;;;;;;;;;;5056253;28;20246;-81
2021/01/17 04:55:48;;;;;;;23.33;17.17;;;;;;;;;;5056250;28;20226;-81
2021/01/17 04:58:16;;;;;;;25.67;16.90;;;;;;;;;;5056403;28;20230;-81
2021/01/17 05:00:44;;;;;;;26.63;16.97;;;;;;;;;;5055884;28;20223;-81
2021/01/17 05:03:18;;;;;;;22.57;16.03;;;;;;;;;;5056129;28;20231;-84
2021/01/17 05:05:47;;;;;;;21.80;16.37;;;;;;;;;;5056006;28;20234;-85
2021/01/17 05:08:28;;;;;;;25.20;16.73;;;;;;;;;;5056197;28;20262;-85
2021/01/17 05:10:58;;;;;;;23.43;16.57;;;;;;;;;;5055652;28;20234;-85
2021/01/17 05:13:25;;;;;;;23.87;16.83;;;;;;;;;;5056026;28;20231;-81
2021/01/17 05:15:55;;;;;;;21.57;15.90;;;;;;;;;;5055262;28;20250;-80
2021/01/17 05:18:23;;;;;;;22.27;16.37;;;;;;;;;;5055958;28;20223;-81
2021/01/17 05:20:49;;;;;;;24.73;17.10;;;;;;;;;;5055907;28;20226;-85
2021/01/17 05:23:15;;;;;;;24.07;17.37;;;;;;;;;;5055711;28;20250;-85
2021/01/17 05:25:42;;;;;;;24.23;16.83;;;;;;;;;;5055206;28;20222;-80
2021/01/17 05:28:08;;;;;;;24.47;16.87;;;;;;;;;;5056043;28;20650;-82
2021/01/17 05:30:35;;;;;;;26.00;16.37;;;;;;;;;;5036863;28;20325;-86
2021/01/17 05:33:05;;;;;;;23.97;16.93;;;;;;;;;;5055725;28;20231;-84
2021/01/17 05:35:31;;;;;;;22.77;16.97;;;;;;;;;;5055965;28;20237;-84
2021/01/17 05:37:57;;;;;;;26.00;16.93;;;;;;;;;;5038083;28;20249;-83
2021/01/17 05:40:23;;;;;;;26.87;16.47;;;;;;;;;;5055515;28;20223;-83
2021/01/17 05:42:49;;;;;;;23.73;17.47;;;;;;;;;;5057200;28;20204;-81
2021/01/17 05:45:17;;;;;;;26.80;18.07;;;;;;;;;;5055095;28;20230;-86
2021/01/17 05:47:51;;;;;;;24.17;17.10;;;;;;;;;;5054933;28;20610;-82
2021/01/17 05:50:19;;;;;;;23.87;17.13;;;;;;;;;;5055066;28;20215;-86
2021/01/17 05:52:50;;;;;;;21.67;16.77;;;;;;;;;;5055076;28;20242;-85
2021/01/17 05:55:16;;;;;;;25.23;17.70;;;;;;;;;;5055266;28;20231;-82
2021/01/17 05:57:43;;;;;;;23.50;17.67;;;;;;;;;;5055321;28;20208;-81
2021/01/17 06:00:09;;;;;;;24.37;17.17;;;;;;;;;;5054992;28;20246;-83
2021/01/17 06:02:36;;;;;;;23.67;17.67;;;;;;;;;;5055237;28;20207;-82
2021/01/17 06:05:03;;;;;;;26.13;17.37;;;;;;;;;;5055230;28;20238;-82
2021/01/17 06:07:30;;;;;;;21.53;16.47;;;;;;;;;;5055130;28;20262;-82
2021/01/17 06:09:57;;;;;;;24.67;17.67;;;;;;;;;;5037039;28;20272;-82
2021/01/17 06:12:29;;;;;;;25.63;17.40;;;;;;;;;;5054788;28;20301;-82
2021/01/17 06:15:01;;;;;;;26.20;17.60;;;;;;;;;;5036261;28;20203;-81
2021/01/17 06:17:28;;;;;;;24.33;17.37;;;;;;;;;;5037471;28;20225;-80
2021/01/17 06:19:54;;;;;;;24.93;18.10;;;;;;;;;;5054938;28;20234;-85
2021/01/17 06:22:23;;;;;;;23.97;17.70;;;;;;;;;;5054790;28;20612;-81
2021/01/17 06:24:58;;;;;;;26.63;17.67;;;;;;;;;;5054522;28;20645;-81
2021/01/17 06:27:25;;;;;;;25.87;18.07;;;;;;;;;;5055218;28;20257;-81
2021/01/17 06:29:51;;;;;;;28.27;18.27;;;;;;;;;;5055124;28;20540;-82
2021/01/17 06:32:18;;;;;;;25.53;16.83;;;;;;;;;;5054774;28;20207;-82
2021/01/17 06:34:45;;;;;;;23.17;17.53;;;;;;;;;;5054410;28;20250;-85
2021/01/17 06:37:12;;;;;;;25.30;18.17;;;;;;;;;;5054992;28;20222;-83
2021/01/17 06:39:41;;;;;;;29.03;19.30;;;;;;;;;;5054224;28;20234;-85
2021/01/17 06:42:09;;;;;;;25.60;17.63;;;;;;;;;;5057617;28;20241;-85
2021/01/17 06:44:35;;;;;;;24.40;18.10;;;;;;;;;;5061126;28;20231;-83
2021/01/17 06:47:02;;;;;;;25.37;18.20;;;;;;;;;;5043635;28;20246;-82
2021/01/17 06:49:29;;;;;;;29.27;18.17;;;;;;;;;;5061407;28;20535;-81
2021/01/17 06:51:56;;;;;;;27.93;18.07;;;;;;;;;;5061341;28;20214;-87
2021/01/17 06:54:22;;;;;;;27.57;17.97;;;;;;;;;;5060296;28;20231;-83
2021/01/17 06:56:49;;;;;;;27.43;18.43;;;;;;;;;;5061303;28;20199;-89
2021/01/17 06:59:29;;;;;;;26.47;18.27;;;;;;;;;;5061172;28;20245;-81
2021/01/17 07:02:05;;;;;;;26.43;18.60;;;;;;;;;;5061467;28;20222;-88
2021/01/17 07:04:40;;;;;;;25.17;18.57;;;;;;;;;;5061028;28;20234;-87
2021/01/17 07:07:27;;;;;;;25.70;19.10;;;;;;;;;;5061348;28;20257;-83
2021/01/17 07:09:59;;;;;;;24.37;17.60;;;;;;;;;;5053429;28;20241;-83
2021/01/17 07:12:33;;;;;;;26.40;18.90;;;;;;;;;;5061884;28;20203;-88
2021/01/17 07:15:04;;;;;;;25.30;17.53;;;;;;;;;;5062912;28;20203;-87
2021/01/17 07:17:32;;;;;;;26.47;17.97;;;;;;;;;;5062240;28;20206;-87
2021/01/17 07:20:00;;;;;;;28.23;18.93;;;;;;;;;;5044330;28;20680;-89
2021/01/17 07:22:27;;;;;;;26.53;17.97;;;;;;;;;;5063247;28;20637;-90
2021/01/17 07:24:55;;;;;;;25.87;18.70;;;;;;;;;;5062538;28;20611;-90
2021/01/17 07:27:30;;;;;;;27.53;18.33;;;;;;;;;;5061909;28;20250;-87
2021/01/17 07:29:58;;;;;;;29.10;19.27;;;;;;;;;;5062855;28;20210;-86
2021/01/17 07:32:35;;;;;;;27.07;18.40;;;;;;;;;;5062335;28;20214;-88
2021/01/17 07:35:06;;;;;;;25.97;18.20;;;;;;;;;;5061292;28;20538;-87
2021/01/17 07:37:33;;;;;;;26.80;18.23;;;;;;;;;;5061376;28;20199;-89
2021/01/17 07:40:01;;;;;;;24.90;18.20;;;;;;;;;;5064115;28;20492;-93
2021/01/17 07:42:33;;;;;;;30.25;24.23;;;;;;;;;;5062396;28;20762;-90
2021/01/17 07:45:11;;;;;;;28.43;19.67;;;;;;;;;;5060622;28;20230;-86
2021/01/17 07:47:41;;;;;;;25.17;18.53;;;;;;;;;;5061498;28;20262;-87
2021/01/17 07:50:08;;;;;;;26.77;18.43;;;;;;;;;;5060204;28;20530;-86
2021/01/17 07:52:38;;;;;;;27.20;18.63;;;;;;;;;;5060898;28;20238;-89
2021/01/17 07:55:05;;;;;;;24.40;17.70;;;;;;;;;;5057394;28;20218;-88
2021/01/17 07:57:33;;;;;;;25.50;17.67;;;;;;;;;;5058657;28;20207;-89
2021/01/17 08:00:04;;;;;;;28.77;18.93;;;;;;;;;;5057802;28;20246;-89
2021/01/17 08:02:31;;;;;;;25.33;17.97;;;;;;;;;;5057747;28;20231;-87
2021/01/17 08:04:58;;;;;;;26.77;18.50;;;;;;;;;;5057364;28;20563;-87
2021/01/17 08:07:31;;;;;;;32.83;19.83;;;;;;;;;;5057777;28;20278;-88
2021/01/17 08:09:57;;;;;;;26.47;18.50;;;;;;;;;;5057111;28;20248;-88
2021/01/17 08:12:33;;;;;;;29.67;19.67;;;;;;;;;;5057674;28;20530;-88
2021/01/17 08:15:18;;;;;;;29.20;18.80;;;;;;;;;;5039566;28;20194;-89
2021/01/17 08:17:44;;;;;;;26.83;18.87;;;;;;;;;;5057790;28;20202;-87
2021/01/17 08:20:20;;;;;;;28.73;19.57;;;;;;;;;;5057499;28;20180;-87
2021/01/17 08:22:46;;;;;;;27.07;18.73;;;;;;;;;;5040386;28;20195;-88
2021/01/17 08:25:13;;;;;;;28.27;19.13;;;;;;;;;;5060847;28;20203;-91
2021/01/17 08:27:40;;;;;;;28.47;18.20;;;;;;;;;;5080453;28;20495;-92
2021/01/17 08:30:13;;;;;;;26.43;18.40;;;;;;;;;;5078524;28;20199;-89
2021/01/17 08:32:40;;;;;;;33.87;20.43;;;;;;;;;;5059836;28;20221;-92
2021/01/17 08:35:22;;;;;;;27.30;19.17;;;;;;;;;;5060986;28;20207;-86
2021/01/17 08:37:50;;;;;;;27.07;18.47;;;;;;;;;;5077812;28;20197;-91
2021/01/17 08:40:16;;;;;;;30.53;20.63;;;;;;;;;;5079273;28;20210;-92
2021/01/17 08:42:48;;;;;;;29.50;19.57;;;;;;;;;;5080036;28;20629;-91
2021/01/17 08:45:29;;;;;;;31.20;20.63;;;;;;;;;;5079408;28;20194;-91
2021/01/17 08:47:56;;;;;;;32.43;21.30;;;;;;;;;;5077428;28;20226;-92
2021/01/17 08:50:26;;;;;;;30.97;19.97;;;;;;;;;;5062045;28;20199;-92
2021/01/17 08:52:53;;;;;;;26.47;18.87;;;;;;;;;;5079538;28;20606;-91
2021/01/17 08:55:34;;;;;;;26.93;19.23;;;;;;;;;;5061257;28;20591;-91
2021/01/17 08:58:00;;;;;;;29.03;19.07;;;;;;;;;;5079013;28;20207;-92
2021/01/17 09:00:53;;;;;;;29.23;18.93;;;;;;;;;;5061056;28;20202;-91
2021/01/17 09:03:25;;;;;;;26.90;19.17;;;;;;;;;;5077279;28;20252;-91
2021/01/17 09:05:52;;;;;;;25.87;18.33;;;;;;;;;;5078074;28;20585;-90
2021/01/17 09:08:19;;;;;;;27.90;18.37;;;;;;;;;;5079451;28;20203;-90
2021/01/17 09:10:45;;;;;;;26.00;17.93;;;;;;;;;;5060083;28;20194;-86
2021/01/17 09:13:17;;;;;;;29.07;19.43;;;;;;;;;;5075979;28;20198;-84
2021/01/17 09:15:50;;;;;;;25.50;17.80;;;;;;;;;;5076135;28;20241;-88
2021/01/17 09:18:23;;;;;;;26.40;19.13;;;;;;;;;;5076353;28;20237;-86
2021/01/17 09:20:49;;;;;;;26.70;18.63;;;;;;;;;;5075407;28;20226;-84
2021/01/17 09:23:16;;;;;;;27.40;18.90;;;;;;;;;;5058072;28;20222;-84
2021/01/17 09:25:43;;;;;;;25.03;18.13;;;;;;;;;;5075104;28;20234;-85
2021/01/17 09:28:10;;;;;;;26.30;18.73;;;;;;;;;;5075410;28;20355;-86
2021/01/17 09:30:37;;;;;;;27.97;19.60;;;;;;;;;;5075360;28;20297;-84
2021/01/17 09:33:03;;;;;;;26.17;18.47;;;;;;;;;;5075498;28;20234;-85
2021/01/17 09:35:29;;;;;;;25.80;18.87;;;;;;;;;;5057711;28;20234;-84
2021/01/17 09:37:57;;;;;;;25.80;18.43;;;;;;;;;;5075238;28;20238;-84
2021/01/17 09:40:23;;;;;;;27.03;18.90;;;;;;;;;;5075326;28;20233;-84
2021/01/17 09:42:52;;;;;;;25.73;18.33;;;;;;;;;;5057404;28;20647;-84
2021/01/17 09:45:18;;;;;;;25.13;17.67;;;;;;;;;;5057417;28;20194;-83
2021/01/17 09:47:44;;;;;;;25.77;17.70;;;;;;;;;;5074683;28;20258;-84
2021/01/17 09:50:11;;;;;;;25.80;17.70;;;;;;;;;;5074336;28;20600;-83
2021/01/17 09:52:38;;;;;;;25.30;17.90;;;;;;;;;;5073916;28;20276;-83
2021/01/17 09:55:07;;;;;;;27.33;17.67;;;;;;;;;;5074296;28;20226;-86
2021/01/17 09:57:36;;;;;;;24.33;17.53;;;;;;;;;;5074333;28;20233;-85
2021/01/17 10:00:06;;;;;;;24.40;18.67;;;;;;;;;;5074126;28;20241;-84
2021/01/17 10:02:32;;;;;;;26.90;18.33;;;;;;;;;;5074003;28;20231;-84
2021/01/17 10:04:58;;;;;;;26.63;17.77;;;;;;;;;;5074102;28;20230;-84
2021/01/17 10:07:24;;;;;;;23.73;17.13;;;;;;;;;;5073738;28;20276;-84
2021/01/17 10:09:51;;;;;;;25.37;17.17;;;;;;;;;;5074112;28;20230;-84
2021/01/17 10:12:19;;;;;;;25.90;17.90;;;;;;;;;;5074106;28;20618;-85
2021/01/17 10:14:45;;;;;;;26.07;17.27;;;;;;;;;;5073723;28;20233;-85
2021/01/17 10:17:12;;;;;;;26.27;16.83;;;;;;;;;;5074275;28;20641;-85
2021/01/17 10:19:39;;;;;;;28.53;17.40;;;;;;;;;;5074688;28;20207;-84
2021/01/17 10:22:05;;;;;;;21.67;16.37;;;;;;;;;;5056335;28;20268;-85
2021/01/17 10:24:32;;;;;;;26.80;16.83;;;;;;;;;;5074698;28;20215;-86
2021/01/17 10:26:59;;;;;;;24.47;17.13;;;;;;;;;;5073639;28;20206;-84
2021/01/17 10:29:27;;;;;;;24.93;17.50;;;;;;;;;;5074670;28;20249;-84
2021/01/17 10:31:56;;;;;;;24.70;18.43;;;;;;;;;;5074488;28;20228;-84
2021/01/17 10:34:24;;;;;;;23.53;17.27;;;;;;;;;;5074823;28;20241;-85
2021/01/17 10:36:55;;;;;;;24.73;16.03;;;;;;;;;;5074136;28;20306;-83
2021/01/17 10:39:21;;;;;;;21.83;16.50;;;;;;;;;;5074501;28;20226;-83
2021/01/17 10:41:47;;;;;;;21.50;16.13;;;;;;;;;;5074523;28;20492;-83
2021/01/17 10:44:16;;;;;;;23.43;16.80;;;;;;;;;;5074394;28;20241;-82
2021/01/17 10:46:44;;;;;;;20.93;16.03;;;;;;;;;;5056435;28;20292;-81
2021/01/17 10:49:15;;;;;;;21.43;16.23;;;;;;;;;;5073821;28;20254;-81
2021/01/17 10:51:43;;;;;;;24.77;17.67;;;;;;;;;;5074610;28;20231;-85
2021/01/17 10:54:10;;;;;;;23.00;16.30;;;;;;;;;;5073990;28;20240;-84
2021/01/17 10:56:36;;;;;;;21.73;15.47;;;;;;;;;;5074214;28;20214;-83
2021/01/17 10:59:07;;;;;;;21.80;16.10;;;;;;;;;;5055223;28;20483;-81
2021/01/17 11:01:34;;;;;;;22.27;15.90;;;;;;;;;;5074420;28;20274;-86
2021/01/17 11:04:00;;;;;;;22.47;15.73;;;;;;;;;;5073834;28;20222;-87
2021/01/17 11:06:27;;;;;;;22.17;16.10;;;;;;;;;;5073623;28;20607;-85
2021/01/17 11:08:55;;;;;;;20.30;15.87;;;;;;;;;;5072472;28;20250;-85
2021/01/17 11:11:22;;;;;;;21.10;16.07;;;;;;;;;;5055196;28;20252;-87
2021/01/17 11:13:55;;;;;;;20.77;15.83;;;;;;;;;;5055465;28;20626;-86
2021/01/17 11:16:32;;;;;;;22.50;16.37;;;;;;;;;;5073639;28;20233;-84
2021/01/17 11:18:58;;;;;;;21.40;15.40;;;;;;;;;;5073270;28;20226;-89
2021/01/17 11:21:25;;;;;;;23.27;15.73;;;;;;;;;;5073941;28;20210;-88
2021/01/17 11:23:52;;;;;;;20.97;15.37;;;;;;;;;;5073412;28;20233;-86
2021/01/17 11:26:21;;;;;;;22.30;16.60;;;;;;;;;;5056441;28;20199;-89
2021/01/17 11:28:50;;;;;;;21.60;16.50;;;;;;;;;;5074381;28;20252;-91
2021/01/17 11:31:17;;;;;;;23.10;16.10;;;;;;;;;;5078530;28;20240;-90
2021/01/17 11:33:43;;;;;;;22.30;15.60;;;;;;;;;;5076861;28;20217;-90
2021/01/17 11:36:09;;;;;;;18.20;14.70;;;;;;;;;;5077866;28;20242;-90
2021/01/17 11:38:42;;;;;;;19.13;14.93;;;;;;;;;;5078194;28;20230;-88
2021/01/17 11:41:09;;;;;;;19.50;14.73;;;;;;;;;;5078247;28;20203;-90
2021/01/17 11:43:36;;;;;;;20.70;14.70;;;;;;;;;;5059983;28;20236;-91
2021/01/17 11:46:04;;;;;;;20.83;14.50;;;;;;;;;;5077709;28;20202;-91
2021/01/17 11:48:31;;;;;;;19.13;14.33;;;;;;;;;;5077612;28;20281;-89
2021/01/17 11:50:57;;;;;;;20.70;15.53;;;;;;;;;;5076695;28;20226;-88
2021/01/17 11:53:25;;;;;;;23.47;15.33;;;;;;;;;;5077590;28;20479;-90
2021/01/17 11:55:51;;;;;;;19.97;14.43;;;;;;;;;;5076615;28;20230;-87
2021/01/17 11:58:18;;;;;;;18.37;13.37;;;;;;;;;;5077264;28;20241;-85
2021/01/17 12:00:45;;;;;;;20.73;13.47;;;;;;;;;;5076116;28;20244;-88
2021/01/17 12:03:21;;;;;;;19.83;14.60;;;;;;;;;;5077451;28;20207;-88
2021/01/17 12:05:55;;;;;;;16.83;12.43;;;;;;;;;;5076190;28;20581;-91
2021/01/17 12:08:21;;;;;;;15.80;11.83;;;;;;;;;;5077992;28;20237;-89
2021/01/17 12:10:53;;;;;;;16.03;12.57;;;;;;;;;;5077769;28;20214;-90
2021/01/17 12:13:19;;;;;;;16.07;12.07;;;;;;;;;;5078000;28;20241;-87
2021/01/17 12:15:46;;;;;;;14.90;11.43;;;;;;;;;;5082539;28;20213;-89
2021/01/17 12:18:12;;;;;;;16.93;12.47;;;;;;;;;;5078366;28;20234;-89
2021/01/17 12:20:38;;;;;;;15.57;11.87;;;;;;;;;;5079146;28;20203;-92
2021/01/17 12:23:04;;;;;;;13.30;11.03;;;;;;;;;;5078249;28;20229;-93
2021/01/17 12:25:31;;;;;;;16.50;11.27;;;;;;;;;;5077660;28;20614;-92
2021/01/17 12:27:57;;;;;;;16.43;11.67;;;;;;;;;;5079087;28;20249;-90
2021/01/17 12:30:23;;;;;;;16.47;13.27;;;;;;;;;;5078125;28;20471;-94
2021/01/17 12:32:50;;;;;;;18.03;12.50;;;;;;;;;;5078425;28;20217;-91
2021/01/17 12:35:16;;;;;;;17.50;12.27;;;;;;;;;;5078085;28;20203;-90
2021/01/17 12:37:42;;;;;;;16.60;12.57;;;;;;;;;;5076881;28;20542;-86
2021/01/17 12:40:09;;;;;;;16.37;12.27;;;;;;;;;;5074857;28;20234;-89
2021/01/17 12:42:35;;;;;;;17.43;12.93;;;;;;;;;;5039220;28;20265;-90
2021/01/17 12:45:01;;;;;;;17.80;12.90;;;;;;;;;;5057126;28;20548;-91
2021/01/17 12:47:27;;;;;;;18.77;12.50;;;;;;;;;;5056677;28;20259;-90
2021/01/17 12:49:54;;;;;;;15.07;12.67;;;;;;;;;;5056427;28;20575;-89
2021/01/17 12:52:20;;;;;;;16.40;12.07;;;;;;;;;;5060766;28;20226;-89
2021/01/17 12:54:47;;;;;;;18.67;13.10;;;;;;;;;;5076776;28;20492;-91
2021/01/17 12:57:13;;;;;;;16.37;13.43;;;;;;;;;;5076617;28;20226;-92
2021/01/17 12:59:39;;;;;;;21.63;15.67;;;;;;;;;;5076951;28;20260;-91
2021/01/17 13:02:05;;;;;;;23.13;16.47;;;;;;;;;;5076904;28;20602;-91
2021/01/17 13:04:31;;;;;;;24.10;17.00;;;;;;;;;;5077171;28;20233;-91
2021/01/17 13:07:03;;;;;;;22.80;16.50;;;;;;;;;;5059668;28;20475;-91
2021/01/17 13:09:29;;;;;;;23.53;17.03;;;;;;;;;;5076727;28;20261;-90
2021/01/17 13:11:55;;;;;;;22.40;16.20;;;;;;;;;;5076565;28;20245;-92
2021/01/17 13:14:21;;;;;;;25.23;16.57;;;;;;;;;;5076525;28;20768;-83
2021/01/17 13:16:48;;;;;;;22.73;15.87;;;;;;;;;;5076269;28;20238;-83
2021/01/17 13:19:14;;;;;;;22.03;15.93;;;;;;;;;;5076489;28;20540;-86
2021/01/17 13:21:40;;;;;;;18.77;14.87;;;;;;;;;;5057437;28;20279;-83
2021/01/17 13:24:07;;;;;;;20.37;15.17;;;;;;;;;;5076108;28;20249;-83
2021/01/17 13:26:33;;;;;;;18.93;14.30;;;;;;;;;;5075495;28;20237;-83
2021/01/17 13:28:59;;;;;;;19.70;14.23;;;;;;;;;;5075922;28;20622;-83
2021/01/17 13:31:26;;;;;;;20.13;13.93;;;;;;;;;;5075719;28;20241;-91
2021/01/17 13:33:52;;;;;;;19.97;14.50;;;;;;;;;;5076952;28;20463;-83
2021/01/17 13:36:18;;;;;;;20.53;14.27;;;;;;;;;;5075602;28;20245;-84
2021/01/17 13:38:44;;;;;;;17.77;12.47;;;;;;;;;;5076398;28;20237;-81
2021/01/17 13:41:12;;;;;;;16.27;12.27;;;;;;;;;;5075421;28;20547;-81
2021/01/17 13:43:41;;;;;;;16.47;11.97;;;;;;;;;;5076370;28;20242;-82
2021/01/17 13:46:07;;;;;;;14.53;11.83;;;;;;;;;;5074882;28;20273;-81
2021/01/17 13:48:34;;;;;;;14.67;11.40;;;;;;;;;;5075483;28;20261;-92
2021/01/17 13:51:00;;;;;;;15.93;12.40;;;;;;;;;;5075246;28;20494;-89
2021/01/17 13:53:26;;;;;;;15.27;11.27;;;;;;;;;;5075570;28;20241;-82
2021/01/17 13:55:53;;;;;;;14.43;11.23;;;;;;;;;;5074937;28;20206;-83
2021/01/17 13:58:20;;;;;;;13.60;11.30;;;;;;;;;;5075605;28;20582;-83
2021/01/17 14:00:46;;;;;;;14.47;11.70;;;;;;;;;;5075455;28;20379;-85
2021/01/17 14:03:12;;;;;;;14.97;11.20;;;;;;;;;;5075422;28;20237;-90
2021/01/17 14:05:39;;;;;;;16.43;11.90;;;;;;;;;;5075145;28;20230;-83
2021/01/17 14:08:05;;;;;;;16.97;11.70;;;;;;;;;;5075116;28;20226;-84
2021/01/17 14:10:31;;;;;;;17.13;11.63;;;;;;;;;;5075165;28;20207;-89
2021/01/17 14:12:58;;;;;;;16.80;12.17;;;;;;;;;;5075263;28;20237;-84
2021/01/17 14:15:25;;;;;;;15.90;11.53;;;;;;;;;;5075928;28;20233;-93
2021/01/17 14:17:52;;;;;;;15.40;12.30;;;;;;;;;;5077245;28;20202;-93
2021/01/17 14:20:20;;;;;;;15.57;11.53;;;;;;;;;;5076266;28;20636;-90